FZAA/FIH METAR and TAF weather

Enter ICAO airport designator
Station Type Date Time Source
FZAA METAR 2020/02/20 22:00 UTC NOAA

FZAA 202200Z 00000KT 8000 FEW020 27/23 Q1010 NOSIG


Station Type Date Time Source
FZAA Decoded METAR 2020/02/20 22:00 UTC NOAA

Kinshasa / N'Djili, Congo, Democratic Republic of the (FZAA) 04-23S 015-26E 312M
Feb 20, 2020 - 05:00 PM EST / 2020.02.20 2200 UTC
Wind: Calm:0
Visibility: 4 mile(s):0
Sky conditions: mostly clear
Temperature: 80 F (27 C)
Dew Point: 73 F (23 C)
Relative Humidity: 78%
Pressure (altimeter): 29.83 in. Hg (1010 hPa)
ob: FZAA 202200Z 00000KT 8000 FEW020 27/23 Q1010 NOSIG
cycle: 22

Station Type Date Time Source
FZAA TAF 2020/02/20 18:51 UTC NOAA

TAF TAF FZAA 201700Z 2018/2124 22006KT 8000 FEW024
BECMG 2020/2022 SCT020 FEW028CB
TEMPO 2103/2107 3000 TSRA
BECMG 210/2112 33012KT SCT023

Example: see airport list